createdAt,value
2023-02-12T00:01:33.886Z,6.87
2023-02-12T00:04:01.981Z,7.53
2023-02-12T00:06:29.985Z,6.97
2023-02-12T00:08:59.218Z,2.73
2023-02-12T00:11:30.659Z,4.13
2023-02-12T00:13:59.166Z,3.73
2023-02-12T00:16:29.793Z,3.57
2023-02-12T00:21:26.394Z,4.00
2023-02-12T00:23:55.018Z,6.23
2023-02-12T00:26:23.999Z,3.67
2023-02-12T00:28:53.722Z,7.30
2023-02-12T00:31:25.637Z,7.77
2023-02-12T00:33:53.920Z,2.87
2023-02-12T00:36:23.964Z,6.13
2023-02-12T00:38:53.210Z,4.60
2023-02-12T00:41:21.602Z,6.83
2023-02-12T00:43:50.044Z,6.67
2023-02-12T00:46:20.223Z,4.43
2023-02-12T00:48:48.508Z,5.60
2023-02-12T00:51:16.964Z,7.47
2023-02-12T00:53:45.123Z,7.93
2023-02-12T00:56:13.260Z,6.67
2023-02-12T00:58:41.412Z,5.10
2023-02-12T01:01:09.829Z,6.47
2023-02-12T01:03:39.646Z,4.53
2023-02-12T01:06:08.334Z,3.77
2023-02-12T01:08:36.572Z,5.53
2023-02-12T01:11:06.498Z,5.80
2023-02-12T01:13:35.737Z,8.57
2023-02-12T01:16:06.836Z,5.20
2023-02-12T01:18:35.117Z,4.80
2023-02-12T01:21:10.621Z,8.33
2023-02-12T01:23:38.697Z,6.20
2023-02-12T01:26:07.524Z,10.07
2023-02-12T01:28:36.217Z,5.43
2023-02-12T01:31:09.037Z,4.07
2023-02-12T01:33:37.071Z,9.90
2023-02-12T01:36:07.037Z,3.30
2023-02-12T01:38:34.973Z,8.00
2023-02-12T01:41:07.512Z,6.43
2023-02-12T01:43:36.343Z,3.20
2023-02-12T01:46:05.349Z,4.43
2023-02-12T01:48:38.462Z,4.27
2023-02-12T01:51:10.707Z,4.60
2023-02-12T01:53:43.224Z,4.00
2023-02-12T01:56:12.288Z,8.60
2023-02-12T01:58:44.359Z,6.70
2023-02-12T02:01:19.141Z,7.00
2023-02-12T02:03:51.372Z,11.80
2023-02-12T02:06:27.555Z,2.47
2023-02-12T02:08:56.804Z,4.27
2023-02-12T02:11:42.590Z,6.20
2023-02-12T02:14:28.369Z,5.33
2023-02-12T02:17:25.032Z,5.03
2023-02-12T02:20:28.435Z,8.67
2023-02-12T02:23:10.636Z,5.83
2023-02-12T02:26:12.392Z,2.90
2023-02-12T02:29:00.253Z,8.00
2023-02-12T02:31:34.631Z,3.63
2023-02-12T02:34:09.590Z,4.40
2023-02-12T02:36:59.332Z,4.47
2023-02-12T02:39:36.190Z,6.20
2023-02-12T02:42:12.240Z,1.87
2023-02-12T02:44:45.580Z,5.27
2023-02-12T02:47:18.350Z,4.43
2023-02-12T02:49:51.688Z,11.00
2023-02-12T02:52:27.088Z,9.07
2023-02-12T02:54:59.841Z,8.70
2023-02-12T02:57:32.168Z,5.03
2023-02-12T03:00:07.003Z,6.57
2023-02-12T03:02:39.515Z,5.67
2023-02-12T03:05:11.237Z,5.63
2023-02-12T03:07:43.017Z,6.93
2023-02-12T03:10:15.411Z,3.90
2023-02-12T03:12:50.863Z,10.33
2023-02-12T03:15:24.905Z,3.03
2023-02-12T03:17:54.430Z,2.37
2023-02-12T03:20:26.370Z,3.87
2023-02-12T03:22:58.005Z,4.17
2023-02-12T03:25:29.991Z,4.53
2023-02-12T03:28:04.549Z,5.33
2023-02-12T03:30:43.201Z,5.50
2023-02-12T03:33:21.275Z,7.20
2023-02-12T03:36:00.694Z,5.60
2023-02-12T03:38:37.003Z,12.53
2023-02-12T03:41:10.408Z,2.33
2023-02-12T03:43:46.322Z,11.10
2023-02-12T03:46:21.750Z,6.73
2023-02-12T03:49:00.210Z,2.97
2023-02-12T03:51:34.834Z,7.87
2023-02-12T03:54:05.075Z,12.37
2023-02-12T03:56:38.454Z,5.73
2023-02-12T03:59:07.290Z,2.47
2023-02-12T04:01:36.939Z,4.50
2023-02-12T04:04:08.269Z,6.13
2023-02-12T04:06:36.718Z,4.53
2023-02-12T04:09:07.583Z,8.00
2023-02-12T04:11:47.026Z,6.03
2023-02-12T04:14:24.334Z,5.20
2023-02-12T04:16:57.775Z,3.00
2023-02-12T04:19:35.147Z,5.33
2023-02-12T04:22:19.538Z,7.23
2023-02-12T04:24:57.004Z,3.63
2023-02-12T04:27:30.277Z,4.23
2023-02-12T04:30:05.581Z,4.80
2023-02-12T04:32:41.477Z,5.93
2023-02-12T04:35:21.790Z,4.60
2023-02-12T04:37:53.432Z,10.00
2023-02-12T04:40:24.430Z,5.57
2023-02-12T04:42:54.367Z,3.90
2023-02-12T04:45:26.420Z,4.70
2023-02-12T04:47:54.404Z,12.10
2023-02-12T04:50:24.362Z,10.33
2023-02-12T04:52:53.888Z,5.90
2023-02-12T04:55:21.964Z,5.00
2023-02-12T04:57:49.982Z,4.60
2023-02-12T05:00:19.716Z,5.13
2023-02-12T05:02:47.656Z,6.57
2023-02-12T05:05:15.876Z,5.00
2023-02-12T05:07:45.424Z,10.37
2023-02-12T05:10:14.764Z,5.57
2023-02-12T05:12:42.749Z,3.70
2023-02-12T05:15:11.280Z,5.57
2023-02-12T05:17:39.867Z,5.50
2023-02-12T05:20:09.164Z,6.67
2023-02-12T05:22:37.050Z,6.10
2023-02-12T05:25:07.185Z,3.93
2023-02-12T05:27:35.211Z,3.03
2023-02-12T05:30:03.699Z,3.60
2023-02-12T05:32:31.613Z,5.47
2023-02-12T05:34:59.628Z,3.37
2023-02-12T05:37:28.095Z,4.33
2023-02-12T05:39:56.028Z,6.93
2023-02-12T05:42:25.398Z,5.87
2023-02-12T05:44:53.318Z,3.43
2023-02-12T05:47:21.174Z,6.00
2023-02-12T05:49:49.413Z,8.87
2023-02-12T05:52:17.349Z,5.60
2023-02-12T05:54:45.377Z,5.17
2023-02-12T05:57:13.384Z,5.47
2023-02-12T05:59:42.939Z,5.53
2023-02-12T06:02:10.956Z,7.83
2023-02-12T06:04:39.019Z,5.17
2023-02-12T06:07:08.033Z,2.37
2023-02-12T06:09:36.162Z,7.70
2023-02-12T06:12:04.361Z,8.37
2023-02-12T06:14:32.330Z,7.07
2023-02-12T06:17:01.642Z,2.33
2023-02-12T06:19:29.649Z,6.20
2023-02-12T06:21:57.704Z,5.90
2023-02-12T06:24:25.809Z,10.80
2023-02-12T06:26:54.163Z,4.37
2023-02-12T06:29:22.921Z,7.33
2023-02-12T06:31:51.369Z,5.37
2023-02-12T06:34:20.809Z,12.13
2023-02-12T06:36:49.029Z,8.17
2023-02-12T06:39:18.259Z,13.80
2023-02-12T06:41:47.741Z,6.83
2023-02-12T06:44:16.695Z,7.40
2023-02-12T06:46:44.736Z,9.30
2023-02-12T06:49:16.300Z,6.20
2023-02-12T06:51:46.638Z,6.13
2023-02-12T06:54:17.627Z,12.10
2023-02-12T06:56:46.230Z,6.67
2023-02-12T06:59:16.543Z,8.83
2023-02-12T07:01:46.090Z,14.80
2023-02-12T07:04:18.229Z,15.43
2023-02-12T07:06:47.935Z,13.47
2023-02-12T07:09:16.237Z,4.67
2023-02-12T07:11:44.274Z,6.20
2023-02-12T07:14:17.489Z,4.47
2023-02-12T07:16:46.098Z,6.90
2023-02-12T07:19:17.062Z,5.20
2023-02-12T07:21:45.235Z,15.00
2023-02-12T07:24:21.484Z,5.50
2023-02-12T07:26:49.465Z,14.33
2023-02-12T07:29:17.908Z,8.80
2023-02-12T07:31:55.848Z,9.53
2023-02-12T07:34:24.408Z,7.63
2023-02-12T07:36:53.618Z,5.83
2023-02-12T07:39:23.770Z,16.03
2023-02-12T07:41:53.560Z,8.97
2023-02-12T07:44:22.165Z,8.33
2023-02-12T07:46:55.274Z,8.83
2023-02-12T07:49:29.356Z,12.07
2023-02-12T07:52:04.510Z,10.97
2023-02-12T07:54:35.827Z,13.20
2023-02-12T07:57:04.188Z,7.40
2023-02-12T07:59:33.014Z,8.27
2023-02-12T08:02:01.137Z,10.33
2023-02-12T08:04:29.205Z,11.17
2023-02-12T08:06:57.977Z,12.03
2023-02-12T08:09:40.579Z,8.43
2023-02-12T08:12:10.599Z,5.43
2023-02-12T08:14:38.571Z,7.30
2023-02-12T08:17:10.758Z,10.53
2023-02-12T08:19:39.055Z,12.37
2023-02-12T08:22:07.587Z,7.07
2023-02-12T08:24:39.042Z,15.13
2023-02-12T08:27:07.115Z,3.77
2023-02-12T08:29:36.432Z,6.03
2023-02-12T08:32:06.506Z,11.43
2023-02-12T08:34:50.405Z,9.40
2023-02-12T08:37:36.991Z,8.40
2023-02-12T08:40:05.227Z,4.83
2023-02-12T08:42:33.194Z,7.30
2023-02-12T08:45:02.608Z,9.13
2023-02-12T08:47:31.589Z,6.43
2023-02-12T08:49:59.642Z,8.57
2023-02-12T08:52:29.084Z,15.30
2023-02-12T08:54:57.503Z,8.17
2023-02-12T08:57:28.210Z,15.43
2023-02-12T08:59:56.546Z,8.97
2023-02-12T09:02:25.985Z,9.00
2023-02-12T09:04:54.254Z,10.50
2023-02-12T09:07:22.424Z,10.47
2023-02-12T09:09:50.319Z,8.53
2023-02-12T09:12:18.241Z,17.50
2023-02-12T09:14:46.414Z,12.60
2023-02-12T09:17:14.518Z,7.17
2023-02-12T09:19:44.046Z,6.83
2023-02-12T09:22:12.135Z,13.93
2023-02-12T09:24:40.234Z,12.17
2023-02-12T09:27:08.291Z,7.63
2023-02-12T09:29:36.476Z,9.37
2023-02-12T09:32:06.726Z,13.77
2023-02-12T09:34:35.992Z,11.83
2023-02-12T09:37:05.332Z,12.97
2023-02-12T09:39:33.521Z,9.97
2023-02-12T09:42:21.401Z,12.97
2023-02-12T09:44:56.542Z,12.40
2023-02-12T09:47:32.121Z,9.87
2023-02-12T09:50:37.069Z,15.00
2023-02-12T09:53:07.217Z,9.60
2023-02-12T09:55:36.767Z,11.37
2023-02-12T09:58:12.265Z,12.00
2023-02-12T10:00:40.371Z,9.83
2023-02-12T10:03:15.864Z,11.20
2023-02-12T10:05:49.397Z,8.57
2023-02-12T10:08:32.946Z,11.17
2023-02-12T10:11:18.662Z,14.07
2023-02-12T10:13:55.896Z,13.03
2023-02-12T10:16:38.532Z,9.40
2023-02-12T10:19:20.690Z,10.13
2023-02-12T10:21:58.170Z,10.57
2023-02-12T10:24:44.922Z,13.87
2023-02-12T10:27:16.241Z,12.53
2023-02-12T10:29:46.686Z,15.33
2023-02-12T10:32:25.353Z,10.93
2023-02-12T10:34:54.786Z,11.87
2023-02-12T10:37:32.431Z,13.93
2023-02-12T10:40:07.210Z,8.83
2023-02-12T10:42:39.836Z,4.83
2023-02-12T10:45:13.646Z,7.30
2023-02-12T10:47:42.110Z,5.60
2023-02-12T10:50:21.086Z,7.77
2023-02-12T10:52:53.467Z,6.83
2023-02-12T10:55:29.008Z,5.57
2023-02-12T10:57:57.990Z,7.23
2023-02-12T11:00:30.639Z,6.83
2023-02-12T11:03:07.994Z,8.90
2023-02-12T11:05:37.969Z,5.37
2023-02-12T11:08:07.143Z,4.93
2023-02-12T11:10:40.489Z,6.10
2023-02-12T11:13:27.882Z,9.20
2023-02-12T11:15:56.446Z,10.20
2023-02-12T11:18:26.889Z,8.50
2023-02-12T11:20:58.578Z,9.40
2023-02-12T11:23:29.408Z,8.27
2023-02-12T11:26:01.012Z,12.03
2023-02-12T11:28:30.148Z,11.43
2023-02-12T11:31:00.823Z,10.07
2023-02-12T11:33:32.883Z,10.03
2023-02-12T11:36:06.421Z,8.17
2023-02-12T11:38:38.022Z,10.97
2023-02-12T11:41:28.540Z,12.97
2023-02-12T11:43:57.129Z,10.67
2023-02-12T11:46:27.761Z,12.50
2023-02-12T11:48:58.124Z,11.97
2023-02-12T11:51:29.493Z,8.87
2023-02-12T11:54:00.780Z,6.93
2023-02-12T11:56:43.605Z,6.20
2023-02-12T11:59:22.867Z,12.87
2023-02-12T12:01:55.192Z,11.40
2023-02-12T12:04:25.799Z,6.73
2023-02-12T12:06:59.378Z,12.00
2023-02-12T12:09:30.944Z,6.83
2023-02-12T12:12:10.085Z,17.43
2023-02-12T12:14:55.890Z,6.90
2023-02-12T12:17:44.795Z,8.63
2023-02-12T12:20:17.034Z,15.63
2023-02-12T12:22:52.364Z,5.20
2023-02-12T12:25:26.235Z,6.40
2023-02-12T12:28:05.756Z,5.73
2023-02-12T12:30:55.730Z,5.83
2023-02-12T12:33:34.862Z,8.40
2023-02-12T12:36:23.807Z,8.37
2023-02-12T12:38:57.963Z,7.37
2023-02-12T12:41:32.047Z,8.20
2023-02-12T12:44:11.372Z,7.10
2023-02-12T12:46:59.148Z,6.97
2023-02-12T12:49:49.280Z,7.43
2023-02-12T12:52:32.591Z,5.67
2023-02-12T12:55:44.467Z,11.93
2023-02-12T12:58:20.954Z,6.50
2023-02-12T13:01:06.624Z,8.00
2023-02-12T13:04:01.070Z,5.47
2023-02-12T13:06:48.680Z,5.20
2023-02-12T13:09:28.228Z,12.67
2023-02-12T13:12:24.594Z,5.23
2023-02-12T13:14:59.662Z,9.87
2023-02-12T13:17:36.844Z,6.67
2023-02-12T13:20:14.704Z,4.27
2023-02-12T13:22:48.848Z,8.00
2023-02-12T13:25:24.984Z,6.80
2023-02-12T13:27:54.092Z,9.27
2023-02-12T13:30:26.007Z,9.63
2023-02-12T13:33:07.112Z,4.77
2023-02-12T13:35:39.043Z,5.97
2023-02-12T13:38:10.634Z,7.23
2023-02-12T13:40:39.256Z,8.30
2023-02-12T13:43:16.368Z,7.40
2023-02-12T13:45:51.510Z,6.70
2023-02-12T13:48:41.307Z,3.20
2023-02-12T13:51:21.708Z,7.67
2023-02-12T13:54:04.597Z,6.07
2023-02-12T13:56:42.219Z,4.53
2023-02-12T13:59:42.006Z,3.57
2023-02-12T14:02:49.403Z,3.33
2023-02-12T14:05:26.480Z,3.80
2023-02-12T14:07:56.615Z,4.17
2023-02-12T14:10:28.802Z,4.33
2023-02-12T14:13:00.513Z,7.80
2023-02-12T14:15:34.684Z,4.70
2023-02-12T14:18:27.166Z,5.00
2023-02-12T14:21:45.827Z,15.50
2023-02-12T14:24:51.188Z,3.17
2023-02-12T14:27:36.748Z,6.97
2023-02-12T14:30:33.357Z,16.90
2023-02-12T14:33:21.473Z,3.40
2023-02-12T14:35:51.108Z,4.40
2023-02-12T14:39:01.251Z,4.07
2023-02-12T14:41:38.026Z,3.83
2023-02-12T14:44:43.028Z,4.07
2023-02-12T14:47:53.825Z,5.40
2023-02-12T14:50:29.908Z,7.87
2023-02-12T14:53:06.175Z,5.50
2023-02-12T14:55:36.585Z,2.00
2023-02-12T14:58:12.082Z,2.80
2023-02-12T15:00:42.429Z,2.93
2023-02-12T15:03:25.266Z,2.17
2023-02-12T15:06:02.748Z,2.90
2023-02-12T15:08:37.140Z,2.13
2023-02-12T15:11:23.783Z,1.90
2023-02-12T15:13:58.030Z,3.20
2023-02-12T15:16:34.478Z,3.70
2023-02-12T15:19:07.579Z,2.17
2023-02-12T15:21:38.667Z,3.03
2023-02-12T15:24:08.313Z,3.07
2023-02-12T15:26:41.534Z,12.17
2023-02-12T15:29:21.726Z,2.73
2023-02-12T15:31:54.019Z,4.27
2023-02-12T15:34:25.006Z,3.33
2023-02-12T15:36:57.868Z,2.63
2023-02-12T15:39:27.887Z,3.50
2023-02-12T15:41:56.212Z,2.83
2023-02-12T15:44:27.495Z,8.47
2023-02-12T15:47:01.593Z,4.93
2023-02-12T15:49:35.327Z,5.53
2023-02-12T15:52:08.606Z,5.90
2023-02-12T15:54:37.296Z,4.30
2023-02-12T15:57:12.307Z,7.23
2023-02-12T15:59:41.266Z,5.40
2023-02-12T16:02:20.102Z,4.90
2023-02-12T16:04:48.862Z,5.87
2023-02-12T16:07:19.533Z,8.50
2023-02-12T16:09:49.696Z,9.40
2023-02-12T16:12:22.679Z,5.87
2023-02-12T16:14:53.410Z,5.10
2023-02-12T16:17:29.372Z,6.83
2023-02-12T16:19:59.947Z,5.30
2023-02-12T16:22:33.643Z,4.50
2023-02-12T16:25:02.328Z,2.80
2023-02-12T16:27:32.742Z,6.10
2023-02-12T16:30:03.543Z,11.67
2023-02-12T16:32:36.278Z,3.43
2023-02-12T16:35:08.040Z,6.17
2023-02-12T16:37:46.708Z,9.13
2023-02-12T16:40:26.201Z,6.80
2023-02-12T16:42:59.584Z,7.33
2023-02-12T16:45:39.226Z,3.17
2023-02-12T16:48:25.221Z,2.97
2023-02-12T16:50:57.130Z,8.03
2023-02-12T16:53:35.896Z,8.23
2023-02-12T16:56:05.546Z,5.77
2023-02-12T16:58:33.550Z,8.23
2023-02-12T17:01:04.476Z,9.23
2023-02-12T17:03:32.955Z,9.60
2023-02-12T17:06:01.318Z,12.90
2023-02-12T17:08:31.436Z,6.50
2023-02-12T17:10:59.326Z,7.37
2023-02-12T17:13:27.228Z,5.93
2023-02-12T17:15:58.058Z,5.43
2023-02-12T17:18:26.709Z,9.07
2023-02-12T17:20:57.469Z,6.83
2023-02-12T17:23:26.104Z,6.63
2023-02-12T17:25:55.779Z,5.17
2023-02-12T17:28:25.076Z,6.73
2023-02-12T17:30:53.428Z,4.30
2023-02-12T17:33:22.741Z,4.03
2023-02-12T17:35:50.788Z,5.13
2023-02-12T17:38:18.631Z,3.97
2023-02-12T17:40:46.717Z,4.00
2023-02-12T17:43:16.020Z,4.90
2023-02-12T17:45:44.433Z,5.17
2023-02-12T17:48:12.686Z,6.03
2023-02-12T17:50:41.622Z,7.10
2023-02-12T17:53:10.112Z,4.40
2023-02-12T17:55:39.726Z,3.67
2023-02-12T17:58:08.266Z,5.93
2023-02-12T18:00:37.663Z,6.80
2023-02-12T18:03:05.670Z,8.70
2023-02-12T18:05:33.745Z,4.57
2023-02-12T18:08:03.525Z,3.77
2023-02-12T18:10:31.607Z,5.97
2023-02-12T18:12:59.525Z,6.50
2023-02-12T18:15:27.554Z,3.83
2023-02-12T18:17:56.871Z,4.43
2023-02-12T18:20:24.921Z,4.97
2023-02-12T18:22:52.991Z,5.67
2023-02-12T18:25:21.010Z,7.57
2023-02-12T18:27:48.943Z,8.77
2023-02-12T18:30:17.382Z,6.63
2023-02-12T18:32:45.469Z,7.70
2023-02-12T18:35:14.964Z,3.50
2023-02-12T18:37:43.456Z,4.77
2023-02-12T18:40:12.867Z,6.20
2023-02-12T18:42:40.879Z,9.47
2023-02-12T18:45:09.577Z,6.40
2023-02-12T18:47:37.559Z,7.50
2023-02-12T18:50:06.160Z,10.57
2023-02-12T18:52:37.219Z,5.97
2023-02-12T18:55:06.766Z,8.40
2023-02-12T18:57:35.336Z,8.10
2023-02-12T19:00:04.702Z,5.03
2023-02-12T19:02:32.963Z,3.67
2023-02-12T19:05:01.192Z,6.03
2023-02-12T19:07:29.280Z,7.40
2023-02-12T19:09:58.711Z,9.20
2023-02-12T19:12:27.136Z,12.87
2023-02-12T19:14:55.232Z,5.83
2023-02-12T19:17:23.421Z,7.73
2023-02-12T19:19:52.044Z,14.93
2023-02-12T19:22:20.269Z,4.63
2023-02-12T19:24:51.747Z,5.90
2023-02-12T19:27:21.238Z,3.70
2023-02-12T19:29:49.300Z,4.70
2023-02-12T19:32:17.528Z,5.20
2023-02-12T19:34:46.419Z,4.40
2023-02-12T19:37:14.528Z,6.60
2023-02-12T19:39:42.762Z,4.33
2023-02-12T19:42:12.675Z,5.60
2023-02-12T19:44:42.290Z,5.13
2023-02-12T19:47:10.487Z,4.87
2023-02-12T19:49:39.036Z,7.87
2023-02-12T19:52:07.122Z,6.73
2023-02-12T19:54:35.318Z,9.23
2023-02-12T19:57:09.075Z,7.00
2023-02-12T19:59:37.903Z,9.40
2023-02-12T20:02:07.781Z,6.23
2023-02-12T20:04:36.916Z,5.97
2023-02-12T20:07:05.255Z,8.80
2023-02-12T20:09:33.175Z,7.03
2023-02-12T20:12:01.339Z,6.60
2023-02-12T20:14:29.366Z,14.23
2023-02-12T20:16:58.510Z,8.67
2023-02-12T20:19:30.964Z,8.07
2023-02-12T20:22:01.667Z,9.77
2023-02-12T20:24:31.703Z,10.03
2023-02-12T20:27:01.111Z,9.57
2023-02-12T20:29:29.387Z,10.47
2023-02-12T20:31:57.555Z,7.57
2023-02-12T20:34:27.239Z,10.47
2023-02-12T20:36:55.268Z,4.97
2023-02-12T20:39:24.390Z,8.67
2023-02-12T20:41:52.598Z,11.80
2023-02-12T20:44:22.181Z,10.90
2023-02-12T20:46:55.631Z,9.00
2023-02-12T20:49:25.278Z,9.20
2023-02-12T20:51:54.782Z,9.80
2023-02-12T20:54:22.975Z,4.97
2023-02-12T20:56:51.569Z,5.10
2023-02-12T20:59:20.366Z,6.53
2023-02-12T21:01:48.561Z,7.83
2023-02-12T21:04:18.656Z,4.50
2023-02-12T21:06:48.350Z,5.97
2023-02-12T21:09:18.779Z,9.40
2023-02-12T21:11:47.464Z,13.73
2023-02-12T21:14:24.655Z,14.47
2023-02-12T21:16:54.460Z,13.73
2023-02-12T21:19:22.679Z,12.40
2023-02-12T21:21:50.818Z,15.83
2023-02-12T21:24:22.095Z,12.50
2023-02-12T21:26:50.681Z,13.33
2023-02-12T21:29:19.069Z,14.67
2023-02-12T21:31:48.395Z,13.67
2023-02-12T21:34:18.362Z,13.33
2023-02-12T21:36:47.633Z,16.47
2023-02-12T21:39:24.408Z,17.00
2023-02-12T21:41:56.150Z,12.67
2023-02-12T21:44:25.563Z,17.57
2023-02-12T21:46:53.879Z,18.43
2023-02-12T21:49:27.484Z,16.60
2023-02-12T21:51:57.583Z,16.00
2023-02-12T21:54:26.037Z,14.47
2023-02-12T21:56:56.208Z,13.73
2023-02-12T21:59:24.944Z,15.83
2023-02-12T22:01:55.328Z,13.17
2023-02-12T22:04:23.375Z,14.50
2023-02-12T22:06:52.668Z,14.20
2023-02-12T22:09:22.585Z,17.70
2023-02-12T22:11:52.289Z,21.27
2023-02-12T22:14:22.802Z,18.43
2023-02-12T22:16:51.072Z,14.83
2023-02-12T22:19:19.150Z,18.23
2023-02-12T22:21:47.115Z,20.90
2023-02-12T22:24:16.947Z,15.63
2023-02-12T22:26:45.511Z,20.87
2023-02-12T22:29:15.085Z,15.47
2023-02-12T22:31:45.955Z,15.10
2023-02-12T22:34:16.734Z,22.90
2023-02-12T22:36:45.314Z,20.93
2023-02-12T22:39:15.074Z,18.60
2023-02-12T22:41:43.361Z,20.13
2023-02-12T22:44:12.850Z,23.37
2023-02-12T22:46:41.195Z,21.33
2023-02-12T22:49:11.039Z,16.93
2023-02-12T22:51:39.791Z,18.87
2023-02-12T22:54:09.155Z,18.83
2023-02-12T22:56:37.107Z,17.50
2023-02-12T22:59:05.185Z,16.03
2023-02-12T23:01:33.334Z,19.57
2023-02-12T23:04:01.354Z,25.07
2023-02-12T23:06:31.948Z,22.10
2023-02-12T23:09:01.778Z,24.00
2023-02-12T23:11:31.426Z,18.90
2023-02-12T23:13:59.927Z,22.83
2023-02-12T23:16:28.107Z,16.33
2023-02-12T23:18:57.517Z,17.90
2023-02-12T23:21:26.276Z,18.67
2023-02-12T23:23:55.916Z,18.37
2023-02-12T23:26:24.252Z,20.10
2023-02-12T23:28:52.334Z,18.90
2023-02-12T23:31:20.327Z,18.83
2023-02-12T23:33:48.465Z,20.27
2023-02-12T23:36:16.553Z,28.57
2023-02-12T23:38:44.470Z,16.30
2023-02-12T23:41:13.806Z,17.90
2023-02-12T23:43:41.726Z,19.37
2023-02-12T23:46:09.818Z,32.57
2023-02-12T23:48:37.835Z,18.07
2023-02-12T23:51:06.116Z,23.23
2023-02-12T23:53:34.192Z,19.37
2023-02-12T23:56:02.187Z,23.30
2023-02-12T23:58:31.485Z,14.00
